Time;durP1;ratioP1;P1;durP2;ratioP2;P2;SDS_P1;SDS_P2;PMS_P1;PMS_P2;Temp;Humidity;BMP_temperature;BMP_pressure;BME280_temperature;BME280_humidity;BME280_pressure;Samples;Min_cycle;Max_cycle;Signal;HPM_P1;HPM_P2
2022/05/10 00:01:24;;;;;;;;;32.25;27.00;;;;;20.43;47.69;101805.09;5028673;28;46024;-69
2022/05/10 00:03:50;;;;;;;;;34.25;29.00;;;;;20.37;48.32;101801.19;5007255;28;45429;-68
2022/05/10 00:06:16;;;;;;;;;32.75;29.00;;;;;20.26;48.88;101795.19;5026551;28;45332;-69
2022/05/10 00:08:42;;;;;;;;;32.50;30.25;;;;;20.18;49.50;101797.00;5041564;28;45439;-69
2022/05/10 00:11:09;;;;;;;;;28.50;24.25;;;;;20.14;49.20;101794.78;5027744;28;45402;-68
2022/05/10 00:13:34;;;;;;;;;34.75;30.00;;;;;20.12;49.57;101794.13;5034473;28;45281;-69
2022/05/10 00:16:00;;;;;;;;;34.50;31.50;;;;;20.12;50.21;101803.25;5026981;28;45284;-68
2022/05/10 00:18:28;;;;;;;;;35.00;31.00;;;;;20.08;49.87;101801.06;5034623;28;45595;-69
2022/05/10 00:20:54;;;;;;;;;36.75;30.25;;;;;20.10;49.98;101787.91;5025903;28;45599;-69
2022/05/10 00:23:19;;;;;;;;;31.00;29.00;;;;;20.12;50.37;101792.22;5034285;28;45294;-69
2022/05/10 00:25:45;;;;;;;;;31.50;25.50;;;;;20.13;49.77;101787.56;5007971;28;45386;-68
2022/05/10 00:28:10;;;;;;;;;35.75;28.25;;;;;20.15;50.13;101788.25;5039450;28;45349;-69
2022/05/10 00:30:37;;;;;;;;;32.75;29.75;;;;;20.14;50.45;101789.28;5025034;28;45313;-68
2022/05/10 00:33:02;;;;;;;;;31.25;27.75;;;;;20.05;50.80;101788.47;5030446;28;45273;-69
2022/05/10 00:35:30;;;;;;;;;34.00;29.00;;;;;20.01;51.38;101783.53;5023863;28;45545;-69
2022/05/10 00:37:59;;;;;;;;;36.00;25.50;;;;;19.95;50.69;101785.09;5034083;28;45712;-69
2022/05/10 00:40:28;;;;;;;;;28.75;26.75;;;;;20.00;50.12;101768.88;5023710;28;45436;-68
2022/05/10 00:43:12;;;;;;;;;32.75;29.25;;;;;19.99;49.99;101769.06;5035149;28;45299;-69
2022/05/10 00:45:45;;;;;;;;;31.00;27.75;;;;;19.95;50.76;101770.47;5007134;28;45440;-69
2022/05/10 00:48:23;;;;;;;;;30.00;29.00;;;;;19.88;51.51;101775.84;5032330;28;45239;-69
2022/05/10 00:50:58;;;;;;;;;30.00;26.75;;;;;19.82;50.96;101763.66;5025189;28;45551;-68
2022/05/10 00:53:48;;;;;;;;;27.00;26.00;;;;;19.82;51.18;101768.31;5031763;28;45310;-68
2022/05/10 00:56:24;;;;;;;;;30.00;29.25;;;;;19.68;51.81;101758.94;5028681;28;45324;-69
2022/05/10 00:59:04;;;;;;;;;35.25;28.00;;;;;19.69;51.86;101768.94;5036024;28;45381;-69
2022/05/10 01:01:32;;;;;;;;;32.25;27.00;;;;;19.66;51.79;101763.78;5036802;28;45341;-69
2022/05/10 01:04:30;;;;;;;;;27.75;24.00;;;;;19.68;52.04;101763.59;5006915;28;45325;-69
2022/05/10 01:07:35;;;;;;;;;33.25;30.50;;;;;19.62;52.11;101767.97;5030770;28;45312;-69
2022/05/10 01:10:24;;;;;;;;;33.50;30.00;;;;;19.55;52.46;101761.47;5022091;28;45358;-68
2022/05/10 01:12:57;;;;;;;;;34.50;30.00;;;;;19.41;53.40;101760.31;5019718;28;46190;-69
2022/05/10 01:15:25;;;;;;;;;30.00;29.50;;;;;19.38;52.89;101760.66;5027599;28;45339;-69
2022/05/10 01:17:57;;;;;;;;;32.25;30.00;;;;;19.30;53.56;101751.59;5033582;28;45368;-69
2022/05/10 01:20:37;;;;;;;;;32.75;30.00;;;;;19.33;52.75;101751.22;5027077;28;45684;-69
2022/05/10 01:23:37;;;;;;;;;33.75;30.00;;;;;19.32;52.66;101742.09;5033125;28;46402;-68
2022/05/10 01:26:14;;;;;;;;;28.75;28.75;;;;;19.31;52.99;101748.66;5019051;28;45277;-69
2022/05/10 01:28:48;;;;;;;;;29.50;28.25;;;;;19.21;53.73;101750.78;5038472;28;45316;-69
2022/05/10 01:31:21;;;;;;;;;32.00;27.75;;;;;19.18;54.20;101742.00;5007647;28;45284;-68
2022/05/10 01:34:15;;;;;;;;;30.25;28.75;;;;;19.12;53.98;101742.75;5027108;28;46219;-68
2022/05/10 01:36:52;;;;;;;;;36.00;31.00;;;;;19.08;54.57;101736.72;5024740;28;45418;-68
2022/05/10 01:39:30;;;;;;;;;32.50;30.50;;;;;19.12;53.88;101743.59;5008991;28;45546;-69
2022/05/10 01:42:31;;;;;;;;;33.25;31.00;;;;;19.12;53.68;101728.97;5030864;28;45351;-69
2022/05/10 01:45:06;;;;;;;;;27.75;23.00;;;;;19.13;53.30;101722.44;5022437;28;45354;-68
2022/05/10 01:47:48;;;;;;;;;33.75;28.75;;;;;19.10;54.58;101733.78;5013975;28;45402;-69
2022/05/10 01:50:20;;;;;;;;;34.25;29.50;;;;;19.04;54.36;101733.47;5022342;28;45285;-69
2022/05/10 01:53:03;;;;;;;;;36.00;30.50;;;;;19.05;54.16;101737.09;5018912;28;45489;-69
2022/05/10 01:55:32;;;;;;;;;31.00;28.50;;;;;18.98;54.43;101727.84;5021482;28;46164;-69
2022/05/10 01:58:14;;;;;;;;;32.00;29.25;;;;;18.98;54.93;101727.84;5024042;28;45360;-69
2022/05/10 02:00:43;;;;;;;;;32.00;30.75;;;;;18.94;54.88;101724.56;5028805;28;45484;-69
2022/05/10 02:03:20;;;;;;;;;28.25;28.25;;;;;18.79;55.09;101703.47;5035295;28;45257;-68
2022/05/10 02:05:58;;;;;;;;;35.50;29.25;;;;;18.94;55.28;101723.72;5024375;28;45346;-69
2022/05/10 02:08:33;;;;;;;;;31.25;29.50;;;;;18.86;55.13;101712.72;5024784;28;45268;-68
2022/05/10 02:11:04;;;;;;;;;31.00;30.00;;;;;18.87;55.51;101718.06;5023238;28;45314;-69
2022/05/10 02:13:37;;;;;;;;;30.25;28.00;;;;;18.83;55.81;101716.72;5040832;28;45337;-68
2022/05/10 02:16:20;;;;;;;;;32.25;29.50;;;;;18.84;55.32;101712.06;5022503;28;47372;-69
2022/05/10 02:18:50;;;;;;;;;31.50;30.50;;;;;18.87;55.47;101711.69;5033976;28;45438;-69
2022/05/10 02:21:24;;;;;;;;;30.50;28.75;;;;;18.89;55.25;101715.13;5027857;28;46417;-69
2022/05/10 02:24:17;;;;;;;;;29.00;27.75;;;;;18.93;55.62;101719.22;5033506;28;45295;-69
2022/05/10 02:26:49;;;;;;;;;29.75;28.00;;;;;18.93;55.66;101705.47;5030883;28;46117;-69
2022/05/10 02:29:18;;;;;;;;;32.00;29.25;;;;;18.89;55.92;101704.13;5036222;28;45236;-69
2022/05/10 02:34:45;;;;;;;;;31.00;29.50;;;;;18.89;55.92;101704.97;5031454;28;45470;-69
2022/05/10 02:37:12;;;;;;;;;31.75;29.50;;;;;18.91;55.58;101704.81;5009573;28;46798;-69
2022/05/10 02:39:38;;;;;;;;;29.50;29.25;;;;;18.93;55.81;101711.84;5011615;28;45393;-69
2022/05/10 02:42:06;;;;;;;;;31.75;30.00;;;;;18.95;55.46;101698.75;5027351;28;45382;-68
2022/05/10 02:44:31;;;;;;;;;35.50;27.00;;;;;18.95;55.98;101697.88;5011048;28;45340;-68
2022/05/10 02:46:57;;;;;;;;;31.00;28.25;;;;;19.01;55.55;101697.16;5032590;28;46796;-69
2022/05/10 02:49:22;;;;;;;;;31.00;28.75;;;;;19.04;55.31;101691.31;5028341;28;45269;-68
2022/05/10 02:51:48;;;;;;;;;29.25;26.25;;;;;19.00;55.89;101689.94;5017445;28;48109;-68
2022/05/10 02:54:13;;;;;;;;;32.50;28.25;;;;;19.03;55.63;101693.19;5030085;28;45276;-68
2022/05/10 02:56:41;;;;;;;;;31.50;25.75;;;;;19.04;55.46;101694.06;5030886;28;45534;-69
2022/05/10 02:59:13;;;;;;;;;28.75;28.75;;;;;19.09;55.52;101696.25;5038401;28;45384;-68
2022/05/10 03:01:41;;;;;;;;;30.50;27.00;;;;;19.12;55.21;101688.50;5013563;28;45343;-69
2022/05/10 03:04:09;;;;;;;;;31.25;29.50;;;;;19.19;55.34;101685.88;5009059;28;45508;-69
2022/05/10 03:06:38;;;;;;;;;25.75;25.25;;;;;19.22;54.73;101691.00;5011450;28;47421;-68
2022/05/10 03:09:05;;;;;;;;;27.00;27.00;;;;;19.25;55.43;101683.25;5026305;28;45785;-68
2022/05/10 03:11:30;;;;;;;;;29.75;28.50;;;;;19.26;55.61;101678.59;5038771;28;45412;-69
2022/05/10 03:13:56;;;;;;;;;27.50;26.25;;;;;19.30;54.74;101686.31;5034293;28;45410;-68
2022/05/10 03:16:23;;;;;;;;;29.75;24.25;;;;;19.35;55.47;101686.63;5008462;28;46536;-68
2022/05/10 03:18:49;;;;;;;;;29.00;25.75;;;;;19.39;54.67;101679.72;5025943;28;45519;-69
2022/05/10 03:21:15;;;;;;;;;26.00;26.00;;;;;19.40;54.57;101681.44;5038225;28;45468;-68
2022/05/10 03:23:41;;;;;;;;;28.25;25.00;;;;;19.41;53.67;101669.38;5034639;28;45243;-67
2022/05/10 03:26:07;;;;;;;;;30.75;28.00;;;;;19.45;54.40;101662.44;5026724;28;46161;-68
2022/05/10 03:28:32;;;;;;;;;26.75;25.50;;;;;19.51;53.39;101671.03;5032259;28;45288;-68
2022/05/10 03:30:58;;;;;;;;;30.00;29.00;;;;;19.48;53.44;101649.38;5026861;28;45434;-68
2022/05/10 03:33:23;;;;;;;;;27.00;25.00;;;;;19.50;53.28;101655.56;5030635;28;45385;-67
2022/05/10 03:35:49;;;;;;;;;28.75;26.50;;;;;19.50;54.00;101656.41;5008498;28;47180;-68
2022/05/10 03:38:14;;;;;;;;;25.25;24.25;;;;;19.48;53.96;101652.13;5015580;28;45257;-67
2022/05/10 03:40:40;;;;;;;;;36.00;29.00;;;;;19.51;53.69;101651.72;5025716;28;45641;-67
2022/05/10 03:43:08;;;;;;;;;29.00;23.00;;;;;19.47;53.70;101653.16;5021778;28;45515;-68
2022/05/10 03:45:34;;;;;;;;;26.25;26.00;;;;;19.47;53.20;101654.03;5024675;28;45637;-68
2022/05/10 03:47:59;;;;;;;;;31.50;30.00;;;;;19.45;54.36;101656.06;5018044;28;45529;-68
2022/05/10 03:50:25;;;;;;;;;26.00;24.50;;;;;19.39;54.49;101638.38;5024398;28;45814;-68
2022/05/10 03:52:52;;;;;;;;;25.75;25.75;;;;;19.48;52.67;101643.84;5021069;28;45344;-67
2022/05/10 03:55:23;;;;;;;;;24.75;23.75;;;;;19.49;53.37;101645.56;5023557;28;45589;-69
2022/05/10 03:57:50;;;;;;;;;29.25;28.00;;;;;19.42;54.20;101640.78;5031571;28;45473;-69
2022/05/10 04:00:25;;;;;;;;;25.00;24.25;;;;;19.42;54.07;101638.00;5033357;28;45293;-68
2022/05/10 04:02:51;;;;;;;;;24.75;24.75;;;;;19.45;53.55;101639.53;5035093;28;45590;-69
2022/05/10 04:05:18;;;;;;;;;26.00;23.50;;;;;19.49;53.32;101645.56;5031014;28;45961;-69
2022/05/10 04:07:44;;;;;;;;;23.50;23.50;;;;;19.54;52.41;101635.69;5034733;28;45386;-68
2022/05/10 04:10:11;;;;;;;;;22.50;21.50;;;;;19.61;52.77;101635.81;5013347;28;45472;-69
2022/05/10 04:12:38;;;;;;;;;27.75;26.00;;;;;19.54;53.53;101634.84;5015274;28;45417;-70
2022/05/10 04:15:05;;;;;;;;;22.00;21.75;;;;;19.56;52.10;101638.28;5030933;28;46331;-69
2022/05/10 04:17:30;;;;;;;;;23.50;23.50;;;;;19.64;51.92;101638.22;5030370;28;45390;-69
2022/05/10 04:19:55;;;;;;;;;25.75;22.75;;;;;19.67;51.85;101637.81;5030565;28;45205;-71
2022/05/10 04:22:21;;;;;;;;;24.75;24.75;;;;;19.67;52.44;101638.69;5010777;28;45355;-70
2022/05/10 04:24:47;;;;;;;;;24.00;23.50;;;;;19.73;52.21;101637.94;5012553;28;46103;-70
2022/05/10 04:27:12;;;;;;;;;24.75;24.75;;;;;19.74;51.91;101633.28;5026300;28;45349;-70
2022/05/10 04:29:38;;;;;;;;;22.25;21.25;;;;;19.79;51.85;101631.69;5011461;28;45291;-71
2022/05/10 04:32:04;;;;;;;;;20.50;19.75;;;;;19.80;51.20;101632.50;5026159;28;45503;-70
2022/05/10 04:34:29;;;;;;;;;23.00;20.25;;;;;19.86;51.81;101634.56;5010289;28;47373;-70
2022/05/10 04:36:54;;;;;;;;;21.25;18.25;;;;;19.86;52.17;101628.19;5030049;28;45251;-70
2022/05/10 04:39:20;;;;;;;;;18.50;18.00;;;;;19.89;50.64;101630.53;5012488;28;45725;-70
2022/05/10 04:41:52;;;;;;;;;19.33;18.33;;;;;19.91;50.88;101634.84;5013276;28;45260;-70
2022/05/10 04:44:18;;;;;;;;;20.50;19.25;;;;;19.98;50.88;101634.94;5011462;28;46829;-70
2022/05/10 04:46:43;;;;;;;;;20.75;20.75;;;;;19.94;50.33;101623.44;5028010;28;45400;-70
2022/05/10 04:49:13;;;;;;;;;18.50;18.50;;;;;20.04;50.73;101635.03;5028450;28;45458;-69
2022/05/10 04:51:39;;;;;;;;;22.00;20.25;;;;;20.09;49.71;101631.72;5028372;28;45584;-70
2022/05/10 04:54:06;;;;;;;;;20.00;20.00;;;;;20.10;50.64;101637.03;5023777;28;47693;-70
2022/05/10 04:56:31;;;;;;;;;22.25;22.25;;;;;20.13;49.46;101642.19;5037727;28;45450;-69
2022/05/10 04:58:57;;;;;;;;;23.25;22.75;;;;;20.16;49.87;101629.94;5017811;28;45373;-69
2022/05/10 05:01:29;;;;;;;;;18.00;18.00;;;;;20.25;49.31;101641.69;5038449;28;45306;-69
2022/05/10 05:03:56;;;;;;;;;24.25;24.25;;;;;20.32;49.16;101634.38;5035658;28;45319;-69
2022/05/10 05:06:26;;;;;;;;;23.00;21.75;;;;;20.38;48.53;101640.00;5027543;28;45344;-71
2022/05/10 05:08:51;;;;;;;;;22.75;22.25;;;;;20.44;48.43;101647.56;5032152;28;45336;-70
2022/05/10 05:11:17;;;;;;;;;23.00;22.25;;;;;20.44;48.09;101635.66;5024447;28;45371;-70
2022/05/10 05:13:42;;;;;;;;;18.75;18.75;;;;;20.50;48.50;101630.22;5034720;28;45461;-70
2022/05/10 05:16:08;;;;;;;;;17.00;17.00;;;;;20.51;48.06;101642.13;5005357;28;45358;-71
2022/05/10 05:18:34;;;;;;;;;21.75;21.75;;;;;20.54;47.90;101644.47;5029810;28;45370;-69
2022/05/10 05:20:59;;;;;;;;;21.75;20.25;;;;;20.54;48.15;101642.59;5024125;28;45426;-69
2022/05/10 05:23:25;;;;;;;;;21.67;20.00;;;;;20.63;48.15;101648.00;5034869;28;47205;-70
2022/05/10 05:25:52;;;;;;;;;21.00;19.50;;;;;20.61;48.06;101648.19;5005243;28;45430;-69
2022/05/10 05:28:18;;;;;;;;;23.00;21.00;;;;;20.61;48.12;101642.66;5027666;28;45607;-71
2022/05/10 05:30:44;;;;;;;;;21.50;21.50;;;;;20.64;47.37;101656.09;5005542;28;45272;-70
2022/05/10 05:33:11;;;;;;;;;23.25;19.25;;;;;20.66;47.83;101650.41;5030224;28;45271;-69
2022/05/10 05:35:36;;;;;;;;;18.75;18.75;;;;;20.68;46.70;101656.56;5022097;28;45532;-70
2022/05/10 05:38:02;;;;;;;;;23.75;20.25;;;;;20.70;46.92;101655.31;5031665;28;45537;-71
2022/05/10 05:40:28;;;;;;;;;22.00;18.25;;;;;20.71;47.41;101643.22;5024023;28;45261;-69
2022/05/10 05:42:55;;;;;;;;;18.50;18.50;;;;;20.78;47.33;101646.94;5035017;28;46677;-70
2022/05/10 05:45:24;;;;;;;;;23.50;19.75;;;;;20.84;47.22;101654.44;5024214;28;45314;-69
2022/05/10 05:47:50;;;;;;;;;22.00;20.50;;;;;20.80;46.97;101641.22;5016952;28;45576;-69
2022/05/10 05:50:18;;;;;;;;;23.25;22.25;;;;;20.86;46.32;101648.72;5024566;28;45298;-70
2022/05/10 05:52:45;;;;;;;;;20.00;20.00;;;;;20.83;46.89;101655.47;5032924;28;45513;-71
2022/05/10 05:55:11;;;;;;;;;20.75;20.25;;;;;20.88;46.34;101655.78;5041059;28;45321;-69
2022/05/10 05:57:37;;;;;;;;;20.33;19.00;;;;;20.97;46.10;101643.53;5030945;28;45184;-69
2022/05/10 06:00:06;;;;;;;;;24.33;20.00;;;;;21.07;46.11;101654.28;5035182;28;45391;-70
2022/05/10 06:02:31;;;;;;;;;20.25;17.50;;;;;21.09;45.72;101648.56;5018473;28;47383;-69
2022/05/10 06:04:57;;;;;;;;;22.75;21.75;;;;;21.19;45.59;101644.47;5034837;28;45268;-71
2022/05/10 06:07:22;;;;;;;;;26.50;22.25;;;;;21.29;45.97;101636.72;5029408;28;45241;-69
2022/05/10 06:09:48;;;;;;;;;18.33;16.67;;;;;21.40;45.94;101648.31;5035124;28;45540;-70
2022/05/10 06:12:19;;;;;;;;;19.00;17.67;;;;;21.28;45.11;101642.44;5013550;28;46421;-69
2022/05/10 06:14:44;;;;;;;;;20.75;18.25;;;;;21.33;45.24;101656.53;5015036;28;45344;-70
2022/05/10 06:17:11;;;;;;;;;20.00;18.75;;;;;21.45;45.21;101648.56;5011572;28;45673;-69
2022/05/10 06:19:38;;;;;;;;;19.00;17.50;;;;;21.52;44.47;101652.25;5032837;28;45524;-70
2022/05/10 06:22:06;;;;;;;;;18.67;16.67;;;;;21.61;44.39;101653.81;5027630;28;46074;-69
2022/05/10 06:24:31;;;;;;;;;19.67;19.33;;;;;21.61;44.24;101649.16;5028910;28;45347;-70
2022/05/10 06:26:57;;;;;;;;;19.67;19.33;;;;;21.74;44.78;101652.03;5025728;28;45456;-71
2022/05/10 06:29:22;;;;;;;;;17.00;16.00;;;;;21.90;44.10;101655.56;5010071;28;45339;-71
2022/05/10 06:31:49;;;;;;;;;20.50;18.00;;;;;21.85;43.88;101635.94;5028370;28;46167;-71
2022/05/10 06:34:16;;;;;;;;;18.33;17.33;;;;;22.08;43.96;101642.09;5027747;28;45220;-70
2022/05/10 06:36:42;;;;;;;;;20.33;19.33;;;;;22.28;43.50;101645.84;5027969;28;45489;-72
2022/05/10 06:39:08;;;;;;;;;21.75;19.75;;;;;22.39;42.76;101639.75;5028935;28;45438;-70
2022/05/10 06:41:34;;;;;;;;;20.00;20.00;;;;;22.48;43.33;101635.75;5010089;28;46977;-71
2022/05/10 06:44:00;;;;;;;;;21.75;18.25;;;;;22.61;42.09;101648.81;5029117;28;45374;-71
2022/05/10 06:46:29;;;;;;;;;21.00;19.00;;;;;22.64;42.44;101644.78;5025107;28;45484;-71
2022/05/10 06:48:55;;;;;;;;;19.33;17.00;;;;;22.64;42.26;101644.78;5013197;28;45345;-73
2022/05/10 06:51:22;;;;;;;;;22.50;21.50;;;;;22.78;42.76;101641.03;5028172;28;45463;-71
2022/05/10 06:53:49;;;;;;;;;26.00;20.50;;;;;22.88;41.89;101644.25;5033849;28;45334;-70
2022/05/10 06:56:14;;;;;;;;;21.67;21.33;;;;;22.97;41.81;101642.16;5032861;28;45687;-70
2022/05/10 06:58:40;;;;;;;;;23.00;21.00;;;;;22.99;42.14;101640.06;5033617;28;45423;-72
2022/05/10 07:01:11;;;;;;;;;19.67;16.33;;;;;23.09;41.89;101640.50;5025778;28;45328;-71
2022/05/10 07:03:37;;;;;;;;;21.00;19.67;;;;;23.16;41.83;101642.22;5040855;28;45427;-71
2022/05/10 07:06:05;;;;;;;;;18.00;18.00;;;;;23.20;41.54;101639.91;5008915;28;45228;-71
2022/05/10 07:08:31;;;;;;;;;17.00;16.33;;;;;23.26;41.29;101636.28;5022591;28;45547;-70
2022/05/10 07:10:56;;;;;;;;;26.25;21.50;;;;;23.19;40.73;101632.63;5020600;28;46066;-71
2022/05/10 07:13:25;;;;;;;;;21.00;20.33;;;;;23.22;41.82;101635.88;5033545;28;45322;-71
2022/05/10 07:15:51;;;;;;;;;20.33;17.00;;;;;23.32;41.33;101621.56;5024727;28;45327;-71
2022/05/10 07:20:58;;;;;;;;;19.25;19.25;;;;;23.48;40.86;101623.97;5132921;27;45339;-69
2022/05/10 07:23:30;;;;;;;;;17.25;17.25;;;;;23.39;40.63;101618.81;5109909;27;45328;-69
2022/05/10 07:25:57;;;;;;;;;14.50;14.25;;;;;23.44;41.08;101617.13;5117911;27;45399;-70
2022/05/10 07:28:23;;;;;;;;;20.75;18.75;;;;;23.45;40.67;101616.03;5104396;27;45329;-71
2022/05/10 07:30:49;;;;;;;;;16.00;16.00;;;;;23.54;40.92;101619.50;5085142;27;45362;-70
2022/05/10 07:33:20;;;;;;;;;16.75;16.75;;;;;23.58;40.36;101621.66;5101456;27;45299;-70
2022/05/10 07:38:30;;;;;;;;;20.25;19.50;;;;;23.61;40.13;101631.44;5098867;27;45461;-70
2022/05/10 07:40:56;;;;;;;;;21.00;21.00;;;;;23.32;40.90;101629.03;5084866;27;46365;-70
2022/05/10 07:43:21;;;;;;;;;16.67;15.00;;;;;23.49;41.07;101622.06;5089724;27;45260;-70
2022/05/10 07:45:51;;;;;;;;;18.00;18.00;;;;;23.59;40.62;101628.06;5084634;27;44996;-69
2022/05/10 07:48:16;;;;;;;;;23.50;16.50;;;;;23.61;40.56;101614.81;5108057;27;45302;-69
2022/05/10 07:50:42;;;;;;;;;18.00;17.33;;;;;23.68;40.49;101621.19;5082968;27;45555;-70
2022/05/10 07:53:12;;;;;;;;;23.50;23.50;;;;;23.76;40.34;101622.91;5108088;27;45313;-69
2022/05/10 07:55:38;;;;;;;;;16.00;15.00;;;;;23.88;40.41;101624.84;5109848;27;45684;-70
2022/05/10 07:58:05;;;;;;;;;18.33;16.00;;;;;24.26;40.19;101625.00;5105604;27;45263;-70
2022/05/10 08:00:35;;;;;;;;;15.67;15.67;;;;;24.66;39.44;101619.34;5091689;27;45180;-70
2022/05/10 08:03:11;;;;;;;;;19.67;18.33;;;;;25.03;37.72;101617.69;5085815;27;45711;-68
2022/05/10 08:05:36;;;;;;;;;16.33;15.33;;;;;25.07;37.48;101610.59;5084711;27;45342;-69
2022/05/10 08:08:01;;;;;;;;;18.00;15.67;;;;;25.24;37.91;101625.69;5105314;27;45313;-69
2022/05/10 08:10:27;;;;;;;;;16.67;14.33;;;;;25.09;37.21;101627.91;5105501;27;46433;-69
2022/05/10 08:12:52;;;;;;;;;18.00;16.33;;;;;25.18;37.07;101632.16;5104668;27;45422;-69
2022/05/10 08:15:20;;;;;;;;;19.67;15.67;;;;;25.05;36.88;101629.47;5088957;27;45405;-69
2022/05/10 08:17:45;;;;;;;;;14.50;14.50;;;;;25.23;37.19;101623.97;5101741;27;45436;-69
2022/05/10 08:20:10;;;;;;;;;17.33;16.33;;;;;25.18;36.72;101626.59;5103725;27;47699;-69
2022/05/10 08:22:36;;;;;;;;;12.67;12.67;;;;;25.21;37.58;101629.75;5103594;27;45329;-69
2022/05/10 08:25:02;;;;;;;;;15.33;14.00;;;;;25.26;36.86;101629.13;5088330;27;45322;-69
2022/05/10 08:27:28;;;;;;;;;14.67;14.67;;;;;25.41;37.44;101634.38;5081121;27;45568;-69
2022/05/10 08:29:54;;;;;;;;;15.33;15.33;;;;;25.46;37.08;101627.03;5104477;27;47441;-70
2022/05/10 08:32:19;;;;;;;;;19.00;17.00;;;;;25.35;37.01;101633.31;5090377;27;45298;-68
2022/05/10 08:34:45;;;;;;;;;15.00;12.00;;;;;25.58;36.84;101627.19;5070241;27;45403;-68
2022/05/10 08:37:10;;;;;;;;;12.00;12.00;;;;;25.92;36.80;101623.91;5087648;27;45470;-69
2022/05/10 08:39:36;;;;;;;;;17.00;13.33;;;;;26.13;36.41;101608.72;5085408;27;45814;-68
2022/05/10 08:42:23;;;;;;;;;15.67;15.67;;;;;26.15;35.40;101617.69;5076251;28;45670;-69
2022/05/10 08:44:57;;;;;;;;;13.00;13.00;;;;;26.37;35.45;101615.34;5068785;27;45338;-68
2022/05/10 08:47:25;;;;;;;;;16.33;13.33;;;;;26.32;35.39;101599.31;5089105;27;46066;-69
2022/05/10 08:49:58;;;;;;;;;16.33;15.00;;;;;26.40;35.13;101614.88;5065025;27;46315;-69
2022/05/10 08:52:30;;;;;;;;;13.67;13.67;;;;;26.52;34.99;101614.97;5068393;28;45373;-69
2022/05/10 08:54:56;;;;;;;;;13.00;13.00;;;;;26.56;34.74;101616.19;5063979;28;45482;-69
2022/05/10 08:57:58;;;;;;;;;15.33;15.33;;;;;26.87;35.04;101615.16;5069845;28;45297;-68
2022/05/10 09:00:35;;;;;;;;;15.00;15.00;;;;;27.24;34.27;101616.81;5072303;27;45361;-69
2022/05/10 09:03:25;;;;;;;;;14.50;14.00;;;;;27.21;33.34;101605.25;5092888;27;45436;-69
2022/05/10 09:06:02;;;;;;;;;10.67;10.33;;;;;27.55;33.81;101604.50;5075249;27;45468;-69
2022/05/10 09:08:54;;;;;;;;;11.67;11.67;;;;;28.09;32.70;101611.72;5092404;27;45399;-70
2022/05/10 09:11:22;;;;;;;;;16.00;16.00;;;;;28.35;31.56;101607.59;5085902;27;46288;-70
2022/05/10 09:13:47;;;;;;;;;12.00;12.00;;;;;28.30;30.99;101604.69;5089646;27;45259;-70
2022/05/10 09:16:14;;;;;;;;;13.67;13.67;;;;;28.47;31.14;101602.84;5072695;27;45506;-70
2022/05/10 09:18:49;;;;;;;;;14.00;12.33;;;;;28.67;30.88;101606.06;5071335;27;45483;-69
2022/05/10 09:21:32;;;;;;;;;12.00;12.00;;;;;28.72;30.72;101607.28;5072459;27;46356;-70
2022/05/10 09:24:09;;;;;;;;;14.33;13.00;;;;;28.86;29.93;101603.97;5076227;27;45524;-70
2022/05/10 09:26:39;;;;;;;;;13.00;13.00;;;;;28.43;30.35;101604.44;5074473;27;45455;-70
2022/05/10 09:29:13;;;;;;;;;13.67;13.67;;;;;28.43;30.69;101587.66;5073604;27;45436;-70
2022/05/10 09:37:15;;;;;;;;;11.00;10.25;;;;;28.80;30.55;101601.31;5085438;27;45456;-72
2022/05/10 09:39:47;;;;;;;;;11.33;11.33;;;;;28.88;30.02;101585.00;5068724;27;45611;-69
2022/05/10 09:42:41;;;;;;;;;14.33;12.33;;;;;28.88;29.41;101586.94;5069513;28;47271;-70
2022/05/10 09:45:16;;;;;;;;;14.00;13.67;;;;;28.60;29.80;101591.38;5061795;28;45277;-71
2022/05/10 09:48:02;;;;;;;;;12.67;12.67;;;;;28.72;30.08;101591.34;5073485;27;45296;-69
2022/05/10 09:50:39;;;;;;;;;14.00;14.00;;;;;29.01;29.88;101589.44;5063913;27;45378;-70
2022/05/10 09:53:27;;;;;;;;;14.33;10.33;;;;;29.06;29.91;101592.34;5090799;27;46086;-69
2022/05/10 09:56:02;;;;;;;;;13.67;12.00;;;;;29.48;29.59;101578.03;5094990;27;45379;-69
2022/05/10 09:58:39;;;;;;;;;20.00;13.50;;;;;29.41;29.17;101584.66;5097186;27;45488;-71
2022/05/10 10:01:10;;;;;;;;;14.00;12.00;;;;;29.07;28.77;101582.88;5075087;27;45230;-70
2022/05/10 10:03:38;;;;;;;;;12.00;10.00;;;;;29.50;29.30;101578.63;5111701;27;46729;-69
2022/05/10 10:06:22;;;;;;;;;11.00;10.00;;;;;29.84;28.27;101582.25;5073475;27;45391;-70
2022/05/10 10:08:51;;;;;;;;;11.33;10.33;;;;;29.85;27.85;101582.00;5093883;27;45309;-69
2022/05/10 10:11:26;;;;;;;;;11.33;9.67;;;;;29.93;28.55;101567.59;5071327;27;45521;-71
2022/05/10 10:14:00;;;;;;;;;15.33;15.33;;;;;29.78;28.08;101573.78;5080534;27;45202;-71
2022/05/10 10:16:30;;;;;;;;;11.00;11.00;;;;;29.62;27.69;101576.59;5073553;27;45410;-70
2022/05/10 10:19:11;;;;;;;;;13.33;13.33;;;;;29.49;28.50;101591.78;5084334;27;45316;-70
2022/05/10 10:22:09;;;;;;;;;11.67;10.33;;;;;29.87;27.15;101564.94;5081352;27;46333;-69
2022/05/10 10:25:00;;;;;;;;;13.00;11.00;;;;;30.04;27.20;101563.84;5092600;27;45561;-71
2022/05/10 10:27:34;;;;;;;;;11.67;11.67;;;;;30.37;26.88;101570.47;5074727;27;45293;-70
2022/05/10 10:30:09;;;;;;;;;10.33;10.33;;;;;29.89;27.23;101579.53;5067686;27;45183;-71
2022/05/10 10:32:46;;;;;;;;;10.67;10.67;;;;;30.49;26.74;101577.63;5092577;27;45337;-71
2022/05/10 10:35:27;;;;;;;;;10.00;10.00;;;;;30.62;26.12;101578.38;5064395;27;45307;-72
2022/05/10 10:38:20;;;;;;;;;13.50;11.50;;;;;30.06;27.15;101569.19;5091567;27;45372;-71
2022/05/10 10:40:59;;;;;;;;;13.33;10.33;;;;;30.52;26.91;101567.91;5067633;27;45400;-71
2022/05/10 10:43:46;;;;;;;;;13.33;10.00;;;;;30.59;26.18;101568.56;5082779;27;45789;-71
2022/05/10 10:46:30;;;;;;;;;9.67;9.67;;;;;30.54;25.81;101571.28;5067613;27;46943;-71
2022/05/10 10:49:11;;;;;;;;;13.33;10.33;;;;;30.25;25.73;101578.13;5098331;27;45273;-70
2022/05/10 10:51:37;;;;;;;;;9.67;9.33;;;;;30.91;25.59;101568.63;5086955;27;45361;-70
2022/05/10 10:54:03;;;;;;;;;11.33;11.33;;;;;30.94;25.38;101570.91;5093632;27;45416;-70
2022/05/10 10:56:54;;;;;;;;;10.33;10.33;;;;;31.36;25.00;101559.84;5074614;27;46218;-70
2022/05/10 11:00:05;;;;;;;;;10.00;10.00;;;;;31.59;24.55;101551.06;5105758;27;45404;-70
2022/05/10 11:02:55;;;;;;;;;15.67;11.00;;;;;31.22;25.10;101572.63;5087168;27;45344;-70
2022/05/10 11:05:43;;;;;;;;;10.33;9.33;;;;;31.14;24.20;101570.31;5092514;27;45423;-70
2022/05/10 11:08:31;;;;;;;;;10.67;10.33;;;;;31.49;24.50;101553.78;5108121;27;47171;-70
2022/05/10 11:11:17;;;;;;;;;12.67;11.00;;;;;32.13;23.71;101541.66;5065490;27;45464;-71
2022/05/10 11:13:56;;;;;;;;;11.33;11.33;;;;;32.33;23.91;101534.19;5088790;27;45349;-69
2022/05/10 11:16:56;;;;;;;;;13.75;12.50;;;;;32.65;23.50;101527.56;5069944;28;45677;-70
2022/05/10 11:19:21;;;;;;;;;14.00;10.67;;;;;32.86;23.25;101526.53;5071777;27;45434;-71
2022/05/10 11:22:14;;;;;;;;;16.00;14.00;;;;;33.25;22.90;101524.06;5074641;27;45365;-72
2022/05/10 11:24:55;;;;;;;;;10.33;10.33;;;;;33.14;22.87;101526.00;5073924;27;45351;-70
2022/05/10 11:27:42;;;;;;;;;10.00;10.00;;;;;33.11;22.90;101528.53;5073922;27;46179;-71
2022/05/10 11:30:15;;;;;;;;;9.33;9.33;;;;;32.85;23.26;101519.19;5065226;28;45386;-71
2022/05/10 11:32:57;;;;;;;;;10.00;10.00;;;;;32.88;23.32;101513.00;5091596;27;45459;-70
2022/05/10 11:35:45;;;;;;;;;15.25;10.00;;;;;32.46;23.28;101528.03;5083935;27;45391;-70
2022/05/10 11:38:14;;;;;;;;;8.00;8.00;;;;;32.26;22.99;101522.34;5093111;27;45576;-70
2022/05/10 11:40:58;;;;;;;;;6.33;6.33;;;;;32.44;23.78;101524.66;5064735;27;46108;-69
2022/05/10 11:43:49;;;;;;;;;11.33;11.33;;;;;31.96;23.89;101516.53;5097803;27;45246;-70